Time;durP1;ratioP1;P1;durP2;ratioP2;P2;SDS_P1;SDS_P2;PMS_P1;PMS_P2;Temp;Humidity;BMP_temperature;BMP_pressure;BME280_temperature;BME280_humidity;BME280_pressure;Samples;Min_cycle;Max_cycle;Signal;HPM_P1;HPM_P2
2023/07/27 05:59:52;;;;;;;2.45;2.30;;;;;;;18.13;45.79;94622.53;5090649;27;21405;-62
2023/07/27 06:02:18;;;;;;;2.28;2.03;;;;;;;17.84;46.47;94631.78;5052263;28;20184;-63
2023/07/27 06:04:43;;;;;;;2.70;2.50;;;;;;;17.89;47.00;94637.31;5048531;28;20227;-62
2023/07/27 06:07:09;;;;;;;2.28;2.17;;;;;;;17.74;47.49;94636.66;5047162;28;20239;-63
2023/07/27 06:09:36;;;;;;;2.08;1.95;;;;;;;17.32;47.68;94642.16;5052714;28;20217;-63
2023/07/27 06:12:11;;;;;;;2.63;2.42;;;;;;;17.27;48.02;94643.78;5046805;28;20216;-63
2023/07/27 06:14:40;;;;;;;2.90;2.40;;;;;;;17.34;47.79;94647.25;5039391;28;20184;-64
2023/07/27 06:17:06;;;;;;;2.42;2.20;;;;;;;17.35;48.14;94638.28;5051370;28;20185;-63
2023/07/27 06:19:31;;;;;;;2.40;2.20;;;;;;;17.42;47.32;94636.44;5048343;28;20225;-64
2023/07/27 06:21:57;;;;;;;4.53;1.92;;;;;;;17.51;47.08;94637.06;5047838;28;20230;-62
2023/07/27 06:24:22;;;;;;;2.10;2.00;;;;;;;17.65;46.87;94630.72;5052358;28;20221;-62
2023/07/27 06:26:48;;;;;;;3.00;2.20;;;;;;;17.55;46.01;94630.31;5050238;28;20188;-63
2023/07/27 06:29:13;;;;;;;2.15;2.05;;;;;;;17.63;45.69;94652.19;5054132;28;20178;-63
2023/07/27 06:31:38;;;;;;;2.20;1.92;;;;;;;17.66;45.17;94639.53;5054406;28;20217;-63
2023/07/27 06:34:04;;;;;;;1.77;1.67;;;;;;;17.74;45.34;94644.63;5043626;28;20259;-63
2023/07/27 06:36:29;;;;;;;2.13;1.73;;;;;;;17.91;44.17;94659.19;5057031;28;20224;-63
2023/07/27 06:38:55;;;;;;;1.65;1.55;;;;;;;17.91;44.02;94624.63;5051672;28;20731;-63
2023/07/27 06:41:25;;;;;;;2.22;1.63;;;;;;;18.16;44.07;94626.63;5052406;28;20186;-63
2023/07/27 06:43:50;;;;;;;1.80;1.70;;;;;;;18.44;43.01;94624.50;5053641;28;20649;-62
2023/07/27 06:46:18;;;;;;;1.80;1.60;;;;;;;18.51;41.69;94635.13;5049926;28;20738;-63
2023/07/27 06:48:43;;;;;;;1.67;1.58;;;;;;;18.37;42.13;94625.53;5049889;28;20225;-63
2023/07/27 06:51:09;;;;;;;1.92;1.45;;;;;;;18.40;42.03;94612.63;5034896;28;20210;-63
2023/07/27 06:53:34;;;;;;;1.85;1.70;;;;;;;18.51;41.58;94611.97;5048165;28;20186;-64
2023/07/27 06:56:00;;;;;;;1.10;1.10;;;;;;;18.70;40.84;94602.25;5054028;28;20608;-67
2023/07/27 06:58:25;;;;;;;1.30;1.20;;;;;;;18.77;40.73;94607.59;5050872;28;20308;-62
2023/07/27 07:00:53;;;;;;;1.98;1.67;;;;;;;18.68;39.93;94604.34;5047848;28;20221;-62
2023/07/27 07:03:18;;;;;;;1.60;1.50;;;;;;;18.83;40.39;94589.94;5047092;28;20225;-61
2023/07/27 07:05:45;;;;;;;1.85;1.50;;;;;;;18.87;40.34;94585.81;5051099;28;20218;-63
2023/07/27 07:08:11;;;;;;;1.50;1.35;;;;;;;18.98;40.37;94598.47;5048565;28;20594;-63
2023/07/27 07:10:36;;;;;;;1.63;1.52;;;;;;;18.98;40.04;94579.81;5035786;28;20305;-64
2023/07/27 07:13:01;;;;;;;1.98;1.50;;;;;;;19.05;40.21;94593.09;5036469;28;20321;-62
2023/07/27 07:15:27;;;;;;;2.30;2.10;;;;;;;19.13;39.74;94587.50;5044578;28;21092;-62
2023/07/27 07:17:52;;;;;;;3.75;1.40;;;;;;;18.87;39.47;94591.97;5039777;28;20237;-62
2023/07/27 07:20:18;;;;;;;2.35;1.48;;;;;;;19.10;39.95;94586.09;5038704;28;20231;-62
2023/07/27 07:22:43;;;;;;;1.80;1.70;;;;;;;19.23;39.56;94613.69;5035815;28;20214;-62
2023/07/27 07:25:09;;;;;;;1.33;1.23;;;;;;;19.19;38.78;94599.97;5033711;28;20640;-62
2023/07/27 07:27:34;;;;;;;1.88;1.42;;;;;;;18.95;39.49;94598.88;5031147;28;20221;-61
2023/07/27 07:29:59;;;;;;;1.48;1.38;;;;;;;18.98;39.36;94590.47;5040233;28;20811;-62
2023/07/27 07:32:26;;;;;;;1.50;1.40;;;;;;;18.83;40.17;94585.44;5040159;28;20186;-61
2023/07/27 07:34:54;;;;;;;1.70;1.60;;;;;;;18.83;40.02;94582.75;5035219;28;20218;-62
2023/07/27 07:37:19;;;;;;;1.63;1.50;;;;;;;19.03;39.46;94587.16;5035606;28;20229;-63
2023/07/27 07:39:45;;;;;;;2.15;1.67;;;;;;;19.08;39.74;94592.66;5035877;28;20226;-62
2023/07/27 07:42:10;;;;;;;2.08;1.88;;;;;;;19.06;40.10;94584.91;5033507;28;20232;-63
2023/07/27 07:44:36;;;;;;;2.03;1.55;;;;;;;19.28;39.62;94614.69;5036219;28;20182;-62
2023/07/27 07:47:02;;;;;;;2.03;1.58;;;;;;;19.34;39.07;94584.47;5032489;28;20178;-62
2023/07/27 07:49:28;;;;;;;2.05;1.85;;;;;;;19.44;38.99;94583.19;5021889;28;20213;-64
2023/07/27 07:51:53;;;;;;;2.00;1.90;;;;;;;19.55;38.78;94587.81;5034143;28;20226;-62
2023/07/27 07:54:19;;;;;;;2.85;1.65;;;;;;;19.60;38.54;94602.13;5037783;28;20649;-62
2023/07/27 07:56:44;;;;;;;2.42;1.40;;;;;;;19.66;38.22;94599.63;5033917;28;20178;-62
2023/07/27 07:59:10;;;;;;;1.60;1.50;;;;;;;19.53;37.88;94600.56;5033145;28;20733;-62
2023/07/27 08:01:35;;;;;;;2.17;1.42;;;;;;;19.68;37.72;94598.41;5037749;28;20225;-62
2023/07/27 08:04:00;;;;;;;1.60;1.50;;;;;;;19.77;37.92;94607.75;5052362;28;20221;-62
2023/07/27 08:06:26;;;;;;;4.65;1.58;;;;;;;19.77;37.74;94594.41;5036939;28;20214;-63
2023/07/27 08:08:51;;;;;;;3.63;1.70;;;;;;;19.72;38.02;94610.25;5032938;28;20277;-63
2023/07/27 08:11:17;;;;;;;2.72;1.60;;;;;;;19.78;37.81;94614.75;5033483;28;20714;-63
2023/07/27 08:13:42;;;;;;;2.78;1.38;;;;;;;19.67;37.32;94601.28;5037693;28;20308;-63
2023/07/27 08:16:08;;;;;;;2.22;1.90;;;;;;;19.83;37.40;94611.41;5035255;28;20277;-63
2023/07/27 08:18:33;;;;;;;1.63;1.52;;;;;;;19.95;37.17;94590.16;5038909;28;20312;-63
2023/07/27 08:21:07;;;;;;;1.80;1.70;;;;;;;19.75;37.06;94615.19;5032358;28;20602;-62
2023/07/27 08:23:32;;;;;;;1.55;1.45;;;;;;;19.69;36.84;94616.03;5033381;28;20179;-63
2023/07/27 08:26:00;;;;;;;1.77;1.50;;;;;;;19.70;36.99;94616.84;5044660;28;20220;-62
2023/07/27 08:28:26;;;;;;;4.82;1.33;;;;;;;19.77;37.24;94606.94;5032148;28;20207;-62
2023/07/27 08:30:52;;;;;;;6.00;1.92;;;;;;;20.10;36.71;94620.00;5033471;28;20313;-61
2023/07/27 08:33:17;;;;;;;1.55;1.40;;;;;;;20.02;36.34;94610.41;5028867;28;20213;-62
2023/07/27 08:35:43;;;;;;;3.95;1.50;;;;;;;20.14;36.40;94623.84;5027957;28;20587;-62
2023/07/27 08:38:09;;;;;;;1.65;1.50;;;;;;;20.16;36.21;94627.13;5035753;28;20248;-61
2023/07/27 08:40:34;;;;;;;1.50;1.40;;;;;;;19.88;36.74;94632.91;5031750;28;20225;-63
2023/07/27 08:43:07;;;;;;;2.03;1.30;;;;;;;19.90;37.02;94638.03;5033316;28;20226;-62
2023/07/27 08:45:33;;;;;;;2.97;1.38;;;;;;;20.09;36.81;94630.88;5031977;28;20222;-62
2023/07/27 08:47:59;;;;;;;4.28;1.70;;;;;;;19.90;37.06;94630.03;5032415;28;20267;-62
2023/07/27 08:50:25;;;;;;;2.25;1.35;;;;;;;19.79;37.49;94628.91;5034437;28;20577;-62
2023/07/27 08:52:51;;;;;;;2.63;1.48;;;;;;;19.83;37.53;94636.25;5032503;28;20222;-63
2023/07/27 08:55:16;;;;;;;2.08;1.33;;;;;;;19.99;36.71;94642.88;5026034;28;20274;-62
2023/07/27 08:57:42;;;;;;;4.30;1.45;;;;;;;19.97;36.93;94644.16;5014703;28;20267;-62
2023/07/27 09:00:11;;;;;;;3.65;1.33;;;;;;;20.03;37.16;94622.72;5017488;28;20241;-65
2023/07/27 09:02:38;;;;;;;2.55;1.42;;;;;;;20.10;37.48;94635.19;5025841;28;20183;-60
2023/07/27 09:05:09;;;;;;;3.45;1.67;;;;;;;19.84;38.28;94618.38;5031190;28;20174;-63
2023/07/27 09:07:34;;;;;;;2.65;1.20;;;;;;;19.94;38.00;94634.72;5032816;28;20241;-63
2023/07/27 09:10:07;;;;;;;4.75;1.60;;;;;;;20.04;38.18;94613.66;5032571;28;20264;-66
2023/07/27 09:12:32;;;;;;;1.33;1.23;;;;;;;20.32;37.63;94614.25;5028699;28;20272;-61
2023/07/27 09:14:58;;;;;;;2.40;1.50;;;;;;;20.21;36.85;94621.94;5028440;28;21098;-62
2023/07/27 09:17:23;;;;;;;2.75;1.40;;;;;;;20.20;37.16;94617.63;5015259;28;20182;-62
2023/07/27 09:19:50;;;;;;;3.05;1.13;;;;;;;20.32;36.95;94619.56;5039444;28;20225;-61
2023/07/27 09:22:16;;;;;;;2.10;1.30;;;;;;;20.38;37.27;94630.16;5031376;28;20242;-63
2023/07/27 09:24:41;;;;;;;1.67;1.20;;;;;;;20.21;37.41;94624.59;5032032;28;20226;-62
2023/07/27 09:27:13;;;;;;;1.38;1.27;;;;;;;20.18;37.35;94624.22;5033294;28;20213;-63
2023/07/27 09:29:40;;;;;;;2.90;1.30;;;;;;;20.25;36.75;94635.66;5031403;28;20274;-62
2023/07/27 09:32:09;;;;;;;2.50;1.33;;;;;;;20.21;37.05;94629.13;5021543;28;20198;-61
2023/07/27 09:34:34;;;;;;;2.38;1.60;;;;;;;20.24;37.18;94623.34;5041270;28;20225;-61
2023/07/27 09:37:04;;;;;;;1.10;1.00;;;;;;;20.13;37.21;94659.59;5033128;28;20210;-62
2023/07/27 09:39:35;;;;;;;2.03;1.40;;;;;;;20.26;37.44;94630.09;5025649;28;20269;-62
2023/07/27 09:42:01;;;;;;;3.53;1.40;;;;;;;20.44;37.08;94636.47;5029964;28;20223;-63
2023/07/27 09:44:26;;;;;;;1.90;1.50;;;;;;;20.36;37.61;94637.59;5019900;28;20201;-62
2023/07/27 09:46:52;;;;;;;6.30;1.65;;;;;;;20.22;37.07;94633.44;5010315;28;20219;-62
2023/07/27 09:49:18;;;;;;;3.47;2.17;;;;;;;20.35;36.58;94643.16;5029360;28;20226;-62
2023/07/27 09:51:45;;;;;;;6.50;1.70;;;;;;;20.47;36.47;94634.19;5033582;28;20230;-61
2023/07/27 09:54:14;;;;;;;3.53;1.60;;;;;;;20.67;35.62;94657.22;5039502;28;20217;-63
2023/07/27 09:56:40;;;;;;;4.07;1.80;;;;;;;20.48;35.48;94629.66;5041187;28;20187;-63
2023/07/27 09:59:07;;;;;;;3.80;1.77;;;;;;;20.58;35.83;94639.84;5028715;28;20571;-63
2023/07/27 10:01:33;;;;;;;2.55;1.70;;;;;;;20.65;35.93;94668.13;5032906;28;20962;-61
2023/07/27 10:03:59;;;;;;;3.85;1.92;;;;;;;20.73;35.72;94648.31;5029869;28;20221;-62
2023/07/27 10:06:26;;;;;;;2.40;1.50;;;;;;;20.64;35.25;94645.13;5036892;28;20287;-63
2023/07/27 10:08:52;;;;;;;3.25;1.20;;;;;;;20.85;35.00;94638.50;5027465;28;20174;-63
2023/07/27 10:11:17;;;;;;;4.22;1.63;;;;;;;20.94;35.03;94641.69;5033586;28;20621;-63
2023/07/27 10:13:44;;;;;;;5.40;1.40;;;;;;;21.04;34.23;94641.16;5030818;28;20305;-63
2023/07/27 10:16:17;;;;;;;1.35;1.25;;;;;;;21.06;34.02;94644.41;5033532;28;20249;-62
2023/07/27 10:18:46;;;;;;;3.88;1.40;;;;;;;21.07;34.08;94646.84;5007919;28;20278;-63
2023/07/27 10:21:21;;;;;;;1.30;1.20;;;;;;;20.94;34.38;94622.97;5016731;28;20698;-63
2023/07/27 10:23:55;;;;;;;1.63;1.50;;;;;;;21.23;33.95;94639.25;5004575;28;20194;-62
2023/07/27 10:26:21;;;;;;;4.55;1.70;;;;;;;21.39;32.51;94627.13;5024390;28;20560;-61
2023/07/27 10:28:48;;;;;;;3.60;1.75;;;;;;;21.35;32.48;94638.22;5011562;28;20218;-62
2023/07/27 10:31:19;;;;;;;2.75;1.60;;;;;;;21.50;32.18;94624.47;5024360;28;20218;-62
2023/07/27 10:33:50;;;;;;;5.13;1.67;;;;;;;21.54;32.04;94628.34;5033324;28;20218;-63
2023/07/27 10:36:16;;;;;;;1.73;1.25;;;;;;;21.70;31.84;94620.66;5024744;28;20318;-62
2023/07/27 10:38:53;;;;;;;1.92;1.58;;;;;;;21.89;31.71;94622.22;5014670;28;20632;-63
2023/07/27 10:41:23;;;;;;;2.00;1.20;;;;;;;22.07;32.03;94632.00;5013846;28;20181;-61
2023/07/27 10:44:21;;;;;;;3.22;1.65;;;;;;;22.11;31.72;94621.66;5028612;28;20218;-61
2023/07/27 10:46:47;;;;;;;3.53;1.60;;;;;;;22.16;31.87;94611.03;5017047;28;20230;-62
2023/07/27 10:49:16;;;;;;;1.52;1.40;;;;;;;22.28;31.20;94613.75;5041785;28;20272;-63
2023/07/27 10:51:44;;;;;;;2.38;1.42;;;;;;;22.37;31.34;94617.69;5033575;28;20241;-62
2023/07/27 10:54:09;;;;;;;5.07;1.67;;;;;;;;;;5036390;28;20313;-62
2023/07/27 10:56:35;;;;;;;2.10;1.60;;;;;;;22.32;31.33;94607.69;5018023;28;20224;-62
2023/07/27 10:59:01;;;;;;;1.95;1.38;;;;;;;22.25;31.44;94620.38;5016972;28;20234;-63
2023/07/27 11:01:28;;;;;;;3.53;1.50;;;;;;;22.00;31.45;94608.03;5028790;28;21031;-62
2023/07/27 11:03:57;;;;;;;2.97;1.80;;;;;;;22.24;31.84;94608.06;5034849;28;20230;-63
2023/07/27 11:06:28;;;;;;;2.20;1.58;;;;;;;22.44;31.31;94613.03;5026947;28;20305;-61
2023/07/27 11:08:56;;;;;;;2.05;1.40;;;;;;;22.53;30.80;94600.88;5022407;28;20588;-61
2023/07/27 11:11:27;;;;;;;6.47;1.60;;;;;;;22.50;31.70;94600.56;5018263;28;20194;-62
2023/07/27 11:13:53;;;;;;;2.40;1.70;;;;;;;22.79;30.87;94594.19;5033162;28;20218;-62
2023/07/27 11:16:18;;;;;;;3.30;1.90;;;;;;;22.93;30.90;94589.34;5032994;28;20729;-61
2023/07/27 11:18:44;;;;;;;1.83;1.73;;;;;;;23.11;30.20;94583.81;5039491;28;20332;-61
2023/07/27 11:21:11;;;;;;;1.85;1.40;;;;;;;23.22;29.67;94595.56;5017686;28;20300;-62
2023/07/27 11:23:46;;;;;;;2.65;1.50;;;;;;;23.13;29.63;94582.78;5035422;28;20187;-62
2023/07/27 11:26:12;;;;;;;3.53;1.80;;;;;;;23.23;30.27;94610.63;5034943;28;20215;-62
2023/07/27 11:28:39;;;;;;;2.45;1.70;;;;;;;23.33;29.35;94581.28;5037929;28;20218;-61
2023/07/27 11:31:06;;;;;;;2.03;1.50;;;;;;;23.33;28.97;94600.06;5035340;28;20271;-62
2023/07/27 11:33:36;;;;;;;4.80;1.88;;;;;;;23.41;28.54;94604.19;5030202;28;20272;-62
2023/07/27 11:36:02;;;;;;;2.20;1.95;;;;;;;23.31;28.96;94607.53;5040052;28;20539;-62
2023/07/27 11:38:28;;;;;;;2.97;1.63;;;;;;;23.19;29.92;94612.13;5034507;28;20265;-63
2023/07/27 11:40:57;;;;;;;2.97;1.67;;;;;;;23.28;29.59;94601.81;5037681;28;20217;-61
2023/07/27 11:43:26;;;;;;;2.53;1.70;;;;;;;23.42;29.88;94599.69;5040669;28;20252;-64
2023/07/27 11:45:58;;;;;;;1.60;1.50;;;;;;;23.53;29.04;94593.41;5033962;28;20222;-62
2023/07/27 11:48:28;;;;;;;2.83;1.50;;;;;;;23.54;28.75;94595.03;5041250;28;20217;-62
2023/07/27 11:50:58;;;;;;;3.45;1.60;;;;;;;23.31;28.88;94598.69;5032806;28;20210;-62
2023/07/27 11:53:28;;;;;;;1.90;1.52;;;;;;;23.45;29.15;94591.94;5032875;28;20251;-62
2023/07/27 11:55:54;;;;;;;1.67;1.55;;;;;;;23.56;29.19;94600.97;5037840;28;20214;-62
2023/07/27 11:58:26;;;;;;;1.90;1.70;;;;;;;23.66;28.63;94586.94;5034708;28;20237;-61
2023/07/27 12:00:52;;;;;;;1.67;1.50;;;;;;;23.56;28.84;94603.66;5038991;28;20222;-62
2023/07/27 12:03:19;;;;;;;3.67;1.90;;;;;;;23.65;28.15;94596.03;5036885;28;20221;-62
2023/07/27 12:05:45;;;;;;;1.70;1.60;;;;;;;23.74;28.14;94603.47;5039150;28;20224;-63
2023/07/27 12:08:10;;;;;;;1.90;1.70;;;;;;;23.75;28.74;94593.53;5035295;28;20291;-62
2023/07/27 12:10:35;;;;;;;2.65;1.58;;;;;;;23.86;28.76;94603.38;5030467;28;20234;-61
2023/07/27 12:13:03;;;;;;;6.78;1.42;;;;;;;23.90;28.86;94598.34;5036328;28;20229;-63
2023/07/27 12:15:31;;;;;;;1.60;1.50;;;;;;;24.05;28.59;94595.88;5022728;28;20733;-62
2023/07/27 12:17:59;;;;;;;4.30;1.67;;;;;;;24.21;28.14;94599.59;5020346;28;20296;-63
2023/07/27 12:20:26;;;;;;;2.75;1.50;;;;;;;24.31;26.93;94588.19;5042148;28;20196;-63
2023/07/27 12:22:52;;;;;;;2.58;1.50;;;;;;;24.24;27.33;94617.91;5035711;28;20234;-62
2023/07/27 12:25:17;;;;;;;2.13;1.50;;;;;;;24.34;27.38;94596.56;5033138;28;20293;-62
2023/07/27 12:27:42;;;;;;;2.65;1.65;;;;;;;24.47;26.87;94587.38;5039877;28;20213;-63
2023/07/27 12:30:09;;;;;;;6.20;3.13;;;;;;;24.51;26.85;94601.94;5031068;28;20214;-63
2023/07/27 12:32:35;;;;;;;2.08;1.48;;;;;;;24.56;26.38;94593.13;5032699;28;20182;-63
2023/07/27 12:35:04;;;;;;;2.72;1.73;;;;;;;24.67;26.60;94594.06;5033950;28;20178;-62
2023/07/27 12:37:30;;;;;;;1.65;1.40;;;;;;;24.80;26.71;94599.88;5030061;28;20639;-62
2023/07/27 12:39:55;;;;;;;3.40;1.42;;;;;;;24.68;26.47;94584.94;5027611;28;20229;-61
2023/07/27 12:42:21;;;;;;;1.40;1.30;;;;;;;24.78;26.75;94591.25;5027208;28;20226;-61
2023/07/27 12:44:47;;;;;;;3.20;1.40;;;;;;;24.95;26.36;94572.34;5012036;28;20650;-63
2023/07/27 12:47:12;;;;;;;2.10;1.60;;;;;;;24.91;26.45;94584.66;5012225;28;20171;-62
2023/07/27 12:49:38;;;;;;;2.67;1.40;;;;;;;25.08;25.91;94589.97;5012689;28;20233;-63
2023/07/27 12:52:04;;;;;;;1.70;1.60;;;;;;;24.82;26.33;94591.56;5024390;28;20279;-64
2023/07/27 12:54:29;;;;;;;1.67;1.50;;;;;;;24.85;25.90;94602.63;5039530;28;20281;-62
2023/07/27 12:56:55;;;;;;;1.40;1.30;;;;;;;25.07;25.97;94594.56;5030158;28;20225;-63
2023/07/27 12:59:21;;;;;;;2.88;1.50;;;;;;;25.16;25.80;94586.88;5018693;28;20222;-65
2023/07/27 13:01:47;;;;;;;3.20;1.60;;;;;;;25.38;25.50;94580.63;5030723;28;20253;-62
2023/07/27 13:04:12;;;;;;;1.63;1.30;;;;;;;25.45;25.60;94600.06;5022711;28;20225;-63
2023/07/27 13:06:38;;;;;;;2.30;1.58;;;;;;;25.30;25.10;94601.53;5029531;28;20215;-63
2023/07/27 13:09:04;;;;;;;2.13;1.50;;;;;;;25.24;26.15;94601.75;5031801;28;20221;-62
2023/07/27 13:11:31;;;;;;;2.55;1.40;;;;;;;25.40;26.09;94587.38;5034569;28;20302;-63
2023/07/27 13:13:56;;;;;;;1.85;1.40;;;;;;;25.69;25.26;94597.88;5036218;28;20335;-63
2023/07/27 13:16:22;;;;;;;2.15;1.70;;;;;;;25.59;24.96;94597.78;5027236;28;20246;-63
2023/07/27 13:18:47;;;;;;;2.90;1.70;;;;;;;25.49;25.71;94606.56;5027067;28;20221;-63
2023/07/27 13:21:13;;;;;;;3.67;1.88;;;;;;;25.52;25.30;94609.53;5030900;28;20731;-62
2023/07/27 13:23:38;;;;;;;1.90;1.60;;;;;;;25.62;25.98;94645.72;5033378;28;20252;-63
2023/07/27 13:26:06;;;;;;;2.35;1.75;;;;;;;25.38;26.06;94632.56;5035943;28;20224;-63
2023/07/27 13:28:32;;;;;;;1.95;1.23;;;;;;;25.21;25.37;94623.78;5032184;28;20229;-63
2023/07/27 13:30:59;;;;;;;2.03;1.70;;;;;;;25.38;25.38;94611.03;5030939;28;20280;-63
2023/07/27 13:33:24;;;;;;;2.80;1.40;;;;;;;25.54;24.08;94609.31;5032232;28;20213;-61
2023/07/27 13:35:50;;;;;;;2.17;1.60;;;;;;;25.55;24.37;94618.19;5032601;28;20584;-62
2023/07/27 13:38:15;;;;;;;1.98;1.50;;;;;;;25.84;24.15;94629.53;5035987;28;20229;-62
2023/07/27 13:40:40;;;;;;;1.60;1.50;;;;;;;25.90;23.51;94629.31;5029630;28;20218;-63
2023/07/27 13:43:06;;;;;;;1.58;1.48;;;;;;;25.69;23.58;94644.44;5031779;28;20693;-62
2023/07/27 13:45:31;;;;;;;2.95;1.45;;;;;;;25.77;23.61;94627.03;5033015;28;20273;-64
2023/07/27 13:47:57;;;;;;;1.60;1.50;;;;;;;25.80;23.82;94639.97;5033580;28;20225;-61
2023/07/27 13:50:22;;;;;;;1.55;1.45;;;;;;;25.79;23.92;94632.13;5032321;28;20213;-63
2023/07/27 13:52:48;;;;;;;1.90;1.60;;;;;;;25.65;24.22;94620.97;5031882;28;20254;-63
2023/07/27 13:55:14;;;;;;;1.75;1.40;;;;;;;26.01;23.78;94618.59;5047480;28;20364;-62
2023/07/27 13:57:39;;;;;;;2.03;1.70;;;;;;;26.28;23.50;94618.53;5038552;28;20232;-63
2023/07/27 14:00:07;;;;;;;2.55;1.63;;;;;;;26.24;23.71;94623.63;5037038;28;20286;-63
2023/07/27 14:02:33;;;;;;;2.28;1.50;;;;;;;26.43;23.80;94618.63;5033370;28;20272;-62
2023/07/27 14:04:59;;;;;;;3.97;1.65;;;;;;;26.50;23.58;94613.81;5026268;28;20349;-63
2023/07/27 14:07:24;;;;;;;4.07;1.52;;;;;;;26.42;22.94;94629.69;5030995;28;20402;-62
2023/07/27 14:09:52;;;;;;;2.00;1.83;;;;;;;26.65;23.27;94633.88;5031182;28;20225;-63
2023/07/27 14:12:17;;;;;;;4.47;1.48;;;;;;;26.75;22.65;94623.94;5026385;28;20245;-61
2023/07/27 14:14:43;;;;;;;1.65;1.55;;;;;;;26.91;22.54;94637.50;5029052;28;20179;-64
2023/07/27 14:17:08;;;;;;;3.15;1.60;;;;;;;26.84;22.59;94640.47;5043443;28;20189;-62
2023/07/27 14:19:34;;;;;;;2.30;1.30;;;;;;;26.96;22.73;94634.84;5034225;28;20233;-63
2023/07/27 14:21:59;;;;;;;2.40;1.70;;;;;;;26.92;23.09;94639.97;5034454;28;20256;-63
2023/07/27 14:24:24;;;;;;;3.00;1.70;;;;;;;26.86;23.13;94642.88;5034906;28;20226;-64
2023/07/27 14:26:50;;;;;;;1.88;1.48;;;;;;;26.89;23.20;94639.66;5038260;28;20186;-63
2023/07/27 14:29:16;;;;;;;5.05;1.80;;;;;;;27.02;23.31;94640.00;5034517;28;20186;-63
2023/07/27 14:31:41;;;;;;;3.35;1.83;;;;;;;27.16;22.73;94634.94;5036036;28;20300;-63
2023/07/27 14:34:07;;;;;;;1.60;1.50;;;;;;;27.71;22.41;94630.75;5031545;28;20321;-64
2023/07/27 14:36:33;;;;;;;1.52;1.42;;;;;;;28.51;21.90;94641.03;5030752;28;20218;-64
2023/07/27 14:38:58;;;;;;;4.20;1.73;;;;;;;29.72;19.60;94645.47;5034949;28;20229;-63
2023/07/27 14:41:24;;;;;;;3.92;1.90;;;;;;;31.19;18.02;94644.41;5033212;28;20247;-63
2023/07/27 14:43:51;;;;;;;2.75;1.90;;;;;;;33.00;16.03;94638.66;5033115;28;20214;-62
2023/07/27 14:46:16;;;;;;;2.40;2.20;;;;;;;34.72;14.83;94626.88;5033553;28;20222;-62
2023/07/27 14:48:42;;;;;;;2.65;2.35;;;;;;;35.98;13.33;94650.06;5036093;28;20218;-62
2023/07/27 14:51:07;;;;;;;2.67;2.47;;;;;;;37.04;12.31;94638.69;5034666;28;20316;-62
2023/07/27 14:53:33;;;;;;;2.70;2.50;;;;;;;38.68;11.33;94641.41;5038422;28;20202;-63
2023/07/27 14:55:58;;;;;;;2.95;2.60;;;;;;;39.60;10.19;94639.34;5033052;28;20350;-65
2023/07/27 14:58:27;;;;;;;3.15;2.50;;;;;;;40.54;9.89;94666.53;5023255;28;20237;-63
2023/07/27 15:00:53;;;;;;;2.20;2.00;;;;;;;40.05;9.81;94647.41;5033523;28;21001;-63
2023/07/27 15:03:18;;;;;;;2.45;2.20;;;;;;;39.96;9.93;94651.44;5034445;28;20558;-63
2023/07/27 15:05:44;;;;;;;2.60;2.45;;;;;;;40.76;9.54;94651.41;5033541;28;20193;-62
2023/07/27 15:08:10;;;;;;;3.40;2.50;;;;;;;39.87;9.85;94659.84;5033239;28;20202;-62
2023/07/27 15:10:35;;;;;;;2.53;2.42;;;;;;;40.34;9.96;94678.56;5037262;28;20222;-62
2023/07/27 15:13:00;;;;;;;4.57;2.83;;;;;;;40.33;9.52;94665.94;5035217;28;20227;-63
2023/07/27 15:15:27;;;;;;;2.90;2.22;;;;;;;41.24;9.32;94672.72;5034505;28;20229;-62
2023/07/27 15:17:53;;;;;;;2.97;2.67;;;;;;;40.89;9.07;94670.63;5032310;28;20187;-62
2023/07/27 15:20:19;;;;;;;3.95;3.35;;;;;;;40.59;9.23;94676.50;5035389;28;20181;-63
2023/07/27 15:22:45;;;;;;;4.30;3.20;;;;;;;42.30;8.66;94674.44;5030786;28;20282;-63
2023/07/27 15:25:10;;;;;;;3.47;2.63;;;;;;;43.53;7.59;94677.53;5029941;28;20230;-62
2023/07/27 15:27:35;;;;;;;2.83;2.67;;;;;;;42.66;8.28;94669.63;5034295;28;20347;-63
2023/07/27 15:30:03;;;;;;;3.20;2.90;;;;;;;42.22;8.55;94678.22;5033583;28;20218;-62
2023/07/27 15:32:29;;;;;;;2.90;2.70;;;;;;;41.89;7.99;94670.38;5029798;28;20210;-63
2023/07/27 15:34:54;;;;;;;2.70;2.50;;;;;;;42.50;7.76;94685.50;5039448;28;20231;-63
2023/07/27 15:37:20;;;;;;;2.53;2.42;;;;;;;43.52;7.42;94689.75;5032518;28;20337;-62
2023/07/27 15:39:45;;;;;;;2.05;1.95;;;;;;;41.24;8.47;94700.31;5034051;28;20241;-62
2023/07/27 15:42:11;;;;;;;2.15;2.00;;;;;;;41.94;8.23;94702.44;5032924;28;20233;-62
2023/07/27 15:44:37;;;;;;;2.47;2.28;;;;;;;40.33;8.94;94713.56;5034409;28;20750;-63
2023/07/27 15:47:03;;;;;;;2.47;1.63;;;;;;;40.27;9.16;94706.72;5033268;28;20201;-63
2023/07/27 15:49:29;;;;;;;1.48;1.42;;;;;;;37.58;11.48;94695.69;5050854;28;20220;-63
2023/07/27 15:51:54;;;;;;;1.73;1.27;;;;;;;33.37;14.15;94706.59;5034231;28;20222;-63
2023/07/27 15:54:20;;;;;;;1.92;1.60;;;;;;;32.50;15.63;94702.72;5017296;28;20233;-62
2023/07/27 15:56:45;;;;;;;2.35;1.80;;;;;;;30.30;17.32;94715.31;5018487;28;20189;-62
2023/07/27 15:59:10;;;;;;;1.73;1.63;;;;;;;29.56;18.09;94696.19;5011083;28;20257;-62
2023/07/27 16:01:36;;;;;;;2.05;1.73;;;;;;;28.97;19.18;94703.16;5014864;28;20222;-61
2023/07/27 16:04:02;;;;;;;1.98;1.80;;;;;;;28.45;19.18;94701.66;5023712;28;20312;-62
2023/07/27 16:06:27;;;;;;;2.38;1.92;;;;;;;27.92;20.29;94719.97;5031338;28;20245;-63
2023/07/27 16:08:54;;;;;;;2.13;1.80;;;;;;;27.64;20.88;94718.50;5034506;28;20209;-62
2023/07/27 16:11:19;;;;;;;7.45;2.08;;;;;;;27.30;21.44;94713.56;5029805;28;20210;-63
2023/07/27 16:13:45;;;;;;;2.35;1.77;;;;;;;26.99;21.92;94712.56;5029140;28;20261;-62
2023/07/27 16:16:10;;;;;;;5.05;1.73;;;;;;;26.86;22.32;94723.81;5034669;28;20707;-62
2023/07/27 16:18:36;;;;;;;1.88;1.70;;;;;;;26.22;23.05;94722.78;5031971;28;20229;-63
2023/07/27 16:21:04;;;;;;;4.00;2.03;;;;;;;25.99;23.16;94723.94;5038740;28;20228;-62
2023/07/27 16:23:33;;;;;;;2.67;2.10;;;;;;;25.78;23.51;94728.28;5032967;28;20273;-63
2023/07/27 16:26:06;;;;;;;3.15;1.88;;;;;;;25.39;24.48;94728.38;5033085;28;20231;-62
2023/07/27 16:28:31;;;;;;;2.97;2.00;;;;;;;25.34;24.46;94741.81;5031485;28;20218;-63
2023/07/27 16:30:57;;;;;;;2.80;1.83;;;;;;;25.14;24.73;94734.25;5024899;28;20218;-63
2023/07/27 16:33:22;;;;;;;2.15;2.00;;;;;;;24.95;25.18;94744.47;5030707;28;20606;-63
2023/07/27 16:35:48;;;;;;;1.80;1.70;;;;;;;24.70;25.70;94747.63;5036459;28;20189;-62
2023/07/27 16:38:13;;;;;;;2.10;1.90;;;;;;;24.57;25.73;94739.91;5031518;28;20202;-63
2023/07/27 16:40:39;;;;;;;2.10;1.83;;;;;;;24.45;26.06;94752.59;5031473;28;20214;-64
2023/07/27 16:43:04;;;;;;;2.00;1.90;;;;;;;24.47;26.56;94745.94;5027731;28;20234;-63
2023/07/27 16:45:30;;;;;;;1.67;1.58;;;;;;;24.44;26.35;94743.75;5010775;28;20222;-63
2023/07/27 16:47:55;;;;;;;2.47;1.70;;;;;;;24.18;27.03;94762.09;5038695;28;20277;-62
2023/07/27 16:50:21;;;;;;;2.38;2.08;;;;;;;24.09;26.75;94760.06;5029896;28;20180;-64
2023/07/27 16:52:46;;;;;;;2.67;1.77;;;;;;;24.19;26.70;94769.09;5027578;28;20218;-63
2023/07/27 16:55:12;;;;;;;1.92;1.70;;;;;;;23.99;27.03;94784.84;5030152;28;20226;-65
2023/07/27 16:57:38;;;;;;;1.80;1.70;;;;;;;23.76;27.46;94789.28;5033296;28;20220;-63
2023/07/27 17:00:04;;;;;;;1.77;1.67;;;;;;;23.49;27.91;94780.91;5029381;28;20242;-63
2023/07/27 17:02:31;;;;;;;2.45;1.80;;;;;;;23.49;27.82;94785.47;5030772;28;20189;-64
2023/07/27 17:04:56;;;;;;;1.70;1.60;;;;;;;23.52;27.78;94783.16;5033616;28;20218;-63
2023/07/27 17:07:21;;;;;;;2.25;1.70;;;;;;;23.44;28.10;94786.22;5026685;28;20218;-65
2023/07/27 17:09:47;;;;;;;2.45;2.03;;;;;;;23.47;28.21;94787.56;5033437;28;20233;-63
2023/07/27 17:12:12;;;;;;;3.75;1.80;;;;;;;23.29;28.49;94788.56;5030956;28;20244;-63
2023/07/27 17:14:38;;;;;;;2.08;1.95;;;;;;;23.39;28.32;94798.69;5033528;28;20190;-63
2023/07/27 17:17:03;;;;;;;2.10;1.90;;;;;;;23.28;28.59;94792.28;5032502;28;20190;-63
2023/07/27 17:19:29;;;;;;;1.83;1.73;;;;;;;23.52;28.45;94812.66;5036183;28;20257;-64
2023/07/27 17:21:54;;;;;;;2.13;1.80;;;;;;;23.07;29.32;94799.91;5029754;28;20288;-62
2023/07/27 17:24:20;;;;;;;1.95;1.80;;;;;;;23.16;29.09;94800.38;5030305;28;20225;-63
2023/07/27 17:26:45;;;;;;;1.40;1.30;;;;;;;22.90;29.67;94802.44;5033739;28;20193;-63
2023/07/27 17:29:10;;;;;;;3.88;1.83;;;;;;;22.85;29.75;94805.03;5033607;28;20579;-62